sensor_id;sensor_type;location;lat;lon;timestamp;temperature;humidity
21267;DHT22;10791;53.108;18.326;2023-04-26T00:02:47;5.20;99.90
21267;DHT22;10791;53.108;18.326;2023-04-26T00:07:50;5.30;99.90
21267;DHT22;10791;53.108;18.326;2023-04-26T00:12:54;5.30;99.90
21267;DHT22;10791;53.108;18.326;2023-04-26T00:17:58;5.40;99.90
21267;DHT22;10791;53.108;18.326;2023-04-26T00:23:01;5.40;99.90
21267;DHT22;10791;53.108;18.326;2023-04-26T00:28:05;5.40;99.90
21267;DHT22;10791;53.108;18.326;2023-04-26T00:33:08;5.40;99.90
21267;DHT22;10791;53.108;18.326;2023-04-26T00:38:11;5.40;99.90
21267;DHT22;10791;53.108;18.326;2023-04-26T00:43:14;5.30;99.90
21267;DHT22;10791;53.108;18.326;2023-04-26T00:48:18;5.20;99.90
21267;DHT22;10791;53.108;18.326;2023-04-26T00:53:22;5.00;99.90
21267;DHT22;10791;53.108;18.326;2023-04-26T00:58:26;5.00;99.90
21267;DHT22;10791;53.108;18.326;2023-04-26T01:03:30;4.90;99.90
21267;DHT22;10791;53.108;18.326;2023-04-26T01:08:34;4.70;99.90
21267;DHT22;10791;53.108;18.326;2023-04-26T01:13:37;4.70;99.90
21267;DHT22;10791;53.108;18.326;2023-04-26T01:18:42;4.60;99.90
21267;DHT22;10791;53.108;18.326;2023-04-26T01:23:45;4.50;99.90
21267;DHT22;10791;53.108;18.326;2023-04-26T01:28:49;4.40;99.90
21267;DHT22;10791;53.108;18.326;2023-04-26T01:33:53;4.40;99.90
21267;DHT22;10791;53.108;18.326;2023-04-26T01:38:56;4.30;99.90
21267;DHT22;10791;53.108;18.326;2023-04-26T01:43:59;4.30;99.90
21267;DHT22;10791;53.108;18.326;2023-04-26T01:49:03;4.20;99.90
21267;DHT22;10791;53.108;18.326;2023-04-26T01:54:06;4.20;99.90
21267;DHT22;10791;53.108;18.326;2023-04-26T01:59:09;4.30;99.90
21267;DHT22;10791;53.108;18.326;2023-04-26T02:04:13;4.30;99.90
21267;DHT22;10791;53.108;18.326;2023-04-26T02:09:17;4.40;99.90
21267;DHT22;10791;53.108;18.326;2023-04-26T02:14:20;4.50;99.90
21267;DHT22;10791;53.108;18.326;2023-04-26T02:19:23;4.60;99.90
21267;DHT22;10791;53.108;18.326;2023-04-26T02:24:29;4.60;99.90
21267;DHT22;10791;53.108;18.326;2023-04-26T02:29:35;4.70;99.90
21267;DHT22;10791;53.108;18.326;2023-04-26T02:34:46;4.80;99.90
21267;DHT22;10791;53.108;18.326;2023-04-26T02:39:50;4.70;99.90
21267;DHT22;10791;53.108;18.326;2023-04-26T02:44:54;4.70;99.90
21267;DHT22;10791;53.108;18.326;2023-04-26T02:49:57;4.80;99.90
21267;DHT22;10791;53.108;18.326;2023-04-26T02:55:02;4.70;99.90
21267;DHT22;10791;53.108;18.326;2023-04-26T03:00:07;4.70;99.90
21267;DHT22;10791;53.108;18.326;2023-04-26T03:05:10;4.60;99.90
21267;DHT22;10791;53.108;18.326;2023-04-26T03:10:13;4.50;99.90
21267;DHT22;10791;53.108;18.326;2023-04-26T03:15:17;4.40;99.90
21267;DHT22;10791;53.108;18.326;2023-04-26T03:20:20;4.30;99.90
21267;DHT22;10791;53.108;18.326;2023-04-26T03:25:24;4.30;99.90
21267;DHT22;10791;53.108;18.326;2023-04-26T03:30:28;4.20;99.90
21267;DHT22;10791;53.108;18.326;2023-04-26T03:35:31;4.10;99.90
21267;DHT22;10791;53.108;18.326;2023-04-26T03:40:34;4.10;99.90
21267;DHT22;10791;53.108;18.326;2023-04-26T03:45:38;4.00;99.90
21267;DHT22;10791;53.108;18.326;2023-04-26T03:50:41;4.00;99.90
21267;DHT22;10791;53.108;18.326;2023-04-26T03:55:46;4.00;99.90
21267;DHT22;10791;53.108;18.326;2023-04-26T04:00:50;4.10;99.90
21267;DHT22;10791;53.108;18.326;2023-04-26T04:05:53;4.10;99.90
21267;DHT22;10791;53.108;18.326;2023-04-26T04:10:57;4.10;99.90
21267;DHT22;10791;53.108;18.326;2023-04-26T04:16:00;4.20;99.90
21267;DHT22;10791;53.108;18.326;2023-04-26T04:21:03;4.20;99.90
21267;DHT22;10791;53.108;18.326;2023-04-26T04:26:06;4.30;99.90
21267;DHT22;10791;53.108;18.326;2023-04-26T04:31:11;4.30;99.90
21267;DHT22;10791;53.108;18.326;2023-04-26T04:36:14;4.30;99.90
21267;DHT22;10791;53.108;18.326;2023-04-26T04:41:20;4.40;99.90
21267;DHT22;10791;53.108;18.326;2023-04-26T04:46:25;4.50;99.90
21267;DHT22;10791;53.108;18.326;2023-04-26T04:51:28;4.50;99.90
21267;DHT22;10791;53.108;18.326;2023-04-26T04:56:32;4.70;99.90
21267;DHT22;10791;53.108;18.326;2023-04-26T05:01:35;4.70;99.90
21267;DHT22;10791;53.108;18.326;2023-04-26T05:06:39;4.80;99.90
21267;DHT22;10791;53.108;18.326;2023-04-26T05:11:43;4.90;99.90
21267;DHT22;10791;53.108;18.326;2023-04-26T05:16:46;4.90;99.90
21267;DHT22;10791;53.108;18.326;2023-04-26T05:21:51;5.00;99.90
21267;DHT22;10791;53.108;18.326;2023-04-26T05:26:59;5.10;99.90
21267;DHT22;10791;53.108;18.326;2023-04-26T05:32:03;5.20;99.90
21267;DHT22;10791;53.108;18.326;2023-04-26T05:37:07;5.30;99.90
21267;DHT22;10791;53.108;18.326;2023-04-26T05:42:10;5.40;99.90
21267;DHT22;10791;53.108;18.326;2023-04-26T05:47:14;5.60;99.90
21267;DHT22;10791;53.108;18.326;2023-04-26T05:52:17;5.70;99.90
21267;DHT22;10791;53.108;18.326;2023-04-26T05:57:21;5.70;99.90
21267;DHT22;10791;53.108;18.326;2023-04-26T06:02:24;5.90;99.90
21267;DHT22;10791;53.108;18.326;2023-04-26T06:07:28;6.00;99.90
21267;DHT22;10791;53.108;18.326;2023-04-26T06:12:31;6.10;99.90
21267;DHT22;10791;53.108;18.326;2023-04-26T06:17:35;6.20;99.90
21267;DHT22;10791;53.108;18.326;2023-04-26T06:22:38;6.20;99.90
21267;DHT22;10791;53.108;18.326;2023-04-26T06:27:42;6.20;99.90
21267;DHT22;10791;53.108;18.326;2023-04-26T06:32:45;6.30;99.90
21267;DHT22;10791;53.108;18.326;2023-04-26T06:37:48;6.30;99.90
21267;DHT22;10791;53.108;18.326;2023-04-26T06:42:52;6.40;99.90
21267;DHT22;10791;53.108;18.326;2023-04-26T06:47:56;6.50;99.90
21267;DHT22;10791;53.108;18.326;2023-04-26T06:53:02;6.70;99.90
21267;DHT22;10791;53.108;18.326;2023-04-26T06:58:05;6.80;99.90
21267;DHT22;10791;53.108;18.326;2023-04-26T07:03:09;7.00;99.90
21267;DHT22;10791;53.108;18.326;2023-04-26T07:08:12;7.20;99.90
21267;DHT22;10791;53.108;18.326;2023-04-26T07:13:16;7.40;99.90
21267;DHT22;10791;53.108;18.326;2023-04-26T07:18:20;7.70;99.90
21267;DHT22;10791;53.108;18.326;2023-04-26T07:23:23;8.00;99.90
21267;DHT22;10791;53.108;18.326;2023-04-26T07:28:26;8.10;99.90
21267;DHT22;10791;53.108;18.326;2023-04-26T07:33:29;7.80;99.90
21267;DHT22;10791;53.108;18.326;2023-04-26T07:38:34;7.80;99.90
21267;DHT22;10791;53.108;18.326;2023-04-26T07:43:37;8.00;99.90
21267;DHT22;10791;53.108;18.326;2023-04-26T07:48:41;8.30;99.90
21267;DHT22;10791;53.108;18.326;2023-04-26T07:53:44;8.50;99.90
21267;DHT22;10791;53.108;18.326;2023-04-26T07:58:47;8.60;99.90
21267;DHT22;10791;53.108;18.326;2023-04-26T08:03:50;8.60;99.00
21267;DHT22;10791;53.108;18.326;2023-04-26T08:08:56;8.60;97.90
21267;DHT22;10791;53.108;18.326;2023-04-26T08:14:02;8.70;92.50
21267;DHT22;10791;53.108;18.326;2023-04-26T08:19:05;9.20;95.30
21267;DHT22;10791;53.108;18.326;2023-04-26T08:24:08;9.20;91.80
21267;DHT22;10791;53.108;18.326;2023-04-26T08:29:13;9.00;93.20
21267;DHT22;10791;53.108;18.326;2023-04-26T08:34:16;8.60;94.30
21267;DHT22;10791;53.108;18.326;2023-04-26T08:39:20;8.50;95.60
21267;DHT22;10791;53.108;18.326;2023-04-26T08:44:24;8.90;97.40
21267;DHT22;10791;53.108;18.326;2023-04-26T08:49:34;9.20;95.10
21267;DHT22;10791;53.108;18.326;2023-04-26T08:54:39;9.20;93.30
21267;DHT22;10791;53.108;18.326;2023-04-26T08:59:43;9.10;96.30
21267;DHT22;10791;53.108;18.326;2023-04-26T09:04:47;9.00;93.90
21267;DHT22;10791;53.108;18.326;2023-04-26T09:09:52;8.80;95.10
21267;DHT22;10791;53.108;18.326;2023-04-26T09:14:56;8.60;95.70
21267;DHT22;10791;53.108;18.326;2023-04-26T09:20:00;8.60;96.20
21267;DHT22;10791;53.108;18.326;2023-04-26T09:25:10;8.90;96.10
21267;DHT22;10791;53.108;18.326;2023-04-26T09:30:16;8.90;96.20
21267;DHT22;10791;53.108;18.326;2023-04-26T09:35:34;8.90;96.00
21267;DHT22;10791;53.108;18.326;2023-04-26T09:40:43;9.00;96.40
21267;DHT22;10791;53.108;18.326;2023-04-26T09:45:55;9.00;96.70
21267;DHT22;10791;53.108;18.326;2023-04-26T09:51:10;9.00;96.10
21267;DHT22;10791;53.108;18.326;2023-04-26T09:56:16;8.90;96.50
21267;DHT22;10791;53.108;18.326;2023-04-26T10:01:24;9.10;96.30
21267;DHT22;10791;53.108;18.326;2023-04-26T10:06:28;9.50;98.00
21267;DHT22;10791;53.108;18.326;2023-04-26T10:11:33;9.90;94.60
21267;DHT22;10791;53.108;18.326;2023-04-26T10:16:37;9.90;92.80
21267;DHT22;10791;53.108;18.326;2023-04-26T10:21:42;10.00;93.20
21267;DHT22;10791;53.108;18.326;2023-04-26T10:26:49;10.10;93.10
21267;DHT22;10791;53.108;18.326;2023-04-26T10:37:13;10.10;92.60
21267;DHT22;10791;53.108;18.326;2023-04-26T10:47:37;9.40;91.20
21267;DHT22;10791;53.108;18.326;2023-04-26T10:58:41;9.40;90.80
21267;DHT22;10791;53.108;18.326;2023-04-26T11:09:01;9.20;91.60
21267;DHT22;10791;53.108;18.326;2023-04-26T11:14:05;9.50;91.40
21267;DHT22;10791;53.108;18.326;2023-04-26T11:19:09;9.80;90.40
21267;DHT22;10791;53.108;18.326;2023-04-26T11:24:15;9.50;88.40
21267;DHT22;10791;53.108;18.326;2023-04-26T11:29:19;9.40;89.70
21267;DHT22;10791;53.108;18.326;2023-04-26T11:34:37;9.30;89.90
21267;DHT22;10791;53.108;18.326;2023-04-26T11:39:44;9.30;89.50
21267;DHT22;10791;53.108;18.326;2023-04-26T11:44:50;9.60;90.10
21267;DHT22;10791;53.108;18.326;2023-04-26T11:49:53;9.80;86.90
21267;DHT22;10791;53.108;18.326;2023-04-26T11:55:01;9.90;87.00
21267;DHT22;10791;53.108;18.326;2023-04-26T12:00:13;10.40;86.00
21267;DHT22;10791;53.108;18.326;2023-04-26T12:05:24;10.90;84.50
21267;DHT22;10791;53.108;18.326;2023-04-26T12:10:34;10.80;83.90
21267;DHT22;10791;53.108;18.326;2023-04-26T12:15:38;11.10;87.10
21267;DHT22;10791;53.108;18.326;2023-04-26T12:20:42;11.30;79.30
21267;DHT22;10791;53.108;18.326;2023-04-26T12:25:54;11.20;81.70
21267;DHT22;10791;53.108;18.326;2023-04-26T12:30:58;11.00;81.60
21267;DHT22;10791;53.108;18.326;2023-04-26T12:36:11;10.70;81.20
21267;DHT22;10791;53.108;18.326;2023-04-26T12:41:14;10.50;77.20
21267;DHT22;10791;53.108;18.326;2023-04-26T12:46:17;10.60;75.50
21267;DHT22;10791;53.108;18.326;2023-04-26T12:51:21;10.90;76.60
21267;DHT22;10791;53.108;18.326;2023-04-26T12:56:24;11.10;73.10
21267;DHT22;10791;53.108;18.326;2023-04-26T13:01:27;11.30;74.70
21267;DHT22;10791;53.108;18.326;2023-04-26T13:06:31;11.00;75.50
21267;DHT22;10791;53.108;18.326;2023-04-26T13:11:34;10.60;75.50
21267;DHT22;10791;53.108;18.326;2023-04-26T13:16:37;10.40;77.70
21267;DHT22;10791;53.108;18.326;2023-04-26T13:21:45;10.50;74.90
21267;DHT22;10791;53.108;18.326;2023-04-26T13:26:48;10.60;77.30
21267;DHT22;10791;53.108;18.326;2023-04-26T13:31:52;11.00;76.50
21267;DHT22;10791;53.108;18.326;2023-04-26T13:36:56;11.40;75.20
21267;DHT22;10791;53.108;18.326;2023-04-26T13:41:59;11.30;70.50
21267;DHT22;10791;53.108;18.326;2023-04-26T13:47:04;11.10;71.20
21267;DHT22;10791;53.108;18.326;2023-04-26T13:52:11;11.10;71.40
21267;DHT22;10791;53.108;18.326;2023-04-26T13:57:14;11.00;71.30
21267;DHT22;10791;53.108;18.326;2023-04-26T14:02:18;10.80;73.20
21267;DHT22;10791;53.108;18.326;2023-04-26T14:07:22;10.70;72.30
21267;DHT22;10791;53.108;18.326;2023-04-26T14:12:25;10.60;73.00
21267;DHT22;10791;53.108;18.326;2023-04-26T14:17:28;10.70;72.60
21267;DHT22;10791;53.108;18.326;2023-04-26T14:22:32;10.70;73.30
21267;DHT22;10791;53.108;18.326;2023-04-26T14:27:36;10.60;72.90
21267;DHT22;10791;53.108;18.326;2023-04-26T14:32:41;10.60;74.50
21267;DHT22;10791;53.108;18.326;2023-04-26T14:37:45;10.70;73.40
21267;DHT22;10791;53.108;18.326;2023-04-26T14:42:49;10.70;74.20
21267;DHT22;10791;53.108;18.326;2023-04-26T14:47:52;11.90;72.30
21267;DHT22;10791;53.108;18.326;2023-04-26T14:52:56;14.30;67.40
21267;DHT22;10791;53.108;18.326;2023-04-26T14:57:59;16.00;58.40
21267;DHT22;10791;53.108;18.326;2023-04-26T15:03:03;15.80;57.20
21267;DHT22;10791;53.108;18.326;2023-04-26T15:08:06;14.90;55.10
21267;DHT22;10791;53.108;18.326;2023-04-26T15:13:09;12.90;60.70
21267;DHT22;10791;53.108;18.326;2023-04-26T15:18:13;12.10;63.70
21267;DHT22;10791;53.108;18.326;2023-04-26T15:23:16;13.60;63.30
21267;DHT22;10791;53.108;18.326;2023-04-26T15:28:20;15.60;55.10
21267;DHT22;10791;53.108;18.326;2023-04-26T15:33:24;15.90;52.20
21267;DHT22;10791;53.108;18.326;2023-04-26T15:38:27;16.30;51.90
21267;DHT22;10791;53.108;18.326;2023-04-26T15:43:30;15.60;52.50
21267;DHT22;10791;53.108;18.326;2023-04-26T15:48:34;14.00;54.90
21267;DHT22;10791;53.108;18.326;2023-04-26T15:53:38;12.40;58.30
21267;DHT22;10791;53.108;18.326;2023-04-26T15:58:46;11.80;61.70
21267;DHT22;10791;53.108;18.326;2023-04-26T16:03:50;12.10;59.80
21267;DHT22;10791;53.108;18.326;2023-04-26T16:08:55;13.20;58.10
21267;DHT22;10791;53.108;18.326;2023-04-26T16:13:58;13.80;56.80
21267;DHT22;10791;53.108;18.326;2023-04-26T16:19:01;12.90;58.80
21267;DHT22;10791;53.108;18.326;2023-04-26T16:24:05;12.10;61.40
21267;DHT22;10791;53.108;18.326;2023-04-26T16:29:11;11.50;65.10
21267;DHT22;10791;53.108;18.326;2023-04-26T16:34:15;11.00;67.50
21267;DHT22;10791;53.108;18.326;2023-04-26T16:39:18;10.80;69.90
21267;DHT22;10791;53.108;18.326;2023-04-26T16:44:23;10.70;71.30
21267;DHT22;10791;53.108;18.326;2023-04-26T16:49:27;10.60;71.90
21267;DHT22;10791;53.108;18.326;2023-04-26T16:54:30;10.50;70.20
21267;DHT22;10791;53.108;18.326;2023-04-26T16:59:34;10.30;69.30
21267;DHT22;10791;53.108;18.326;2023-04-26T17:04:37;10.20;69.80
21267;DHT22;10791;53.108;18.326;2023-04-26T17:09:41;10.00;70.50
21267;DHT22;10791;53.108;18.326;2023-04-26T17:14:45;9.80;71.50
21267;DHT22;10791;53.108;18.326;2023-04-26T17:19:49;9.60;72.50
21267;DHT22;10791;53.108;18.326;2023-04-26T17:24:52;9.40;74.20
21267;DHT22;10791;53.108;18.326;2023-04-26T17:29:56;9.50;75.00
21267;DHT22;10791;53.108;18.326;2023-04-26T17:35:01;9.80;74.20
21267;DHT22;10791;53.108;18.326;2023-04-26T17:40:06;10.00;73.60
21267;DHT22;10791;53.108;18.326;2023-04-26T17:45:11;10.20;73.50
21267;DHT22;10791;53.108;18.326;2023-04-26T17:50:17;10.00;74.40
21267;DHT22;10791;53.108;18.326;2023-04-26T17:55:21;9.60;76.10
21267;DHT22;10791;53.108;18.326;2023-04-26T18:00:25;9.20;77.00
21267;DHT22;10791;53.108;18.326;2023-04-26T18:05:30;9.00;78.80
21267;DHT22;10791;53.108;18.326;2023-04-26T18:10:34;8.80;80.00
21267;DHT22;10791;53.108;18.326;2023-04-26T18:15:38;8.60;81.10
21267;DHT22;10791;53.108;18.326;2023-04-26T18:20:43;8.40;82.00
21267;DHT22;10791;53.108;18.326;2023-04-26T18:25:47;8.30;82.70
21267;DHT22;10791;53.108;18.326;2023-04-26T18:30:56;8.10;83.60
21267;DHT22;10791;53.108;18.326;2023-04-26T18:36:00;8.00;84.90
21267;DHT22;10791;53.108;18.326;2023-04-26T18:41:05;7.80;85.60
21267;DHT22;10791;53.108;18.326;2023-04-26T18:46:09;7.70;86.60
21267;DHT22;10791;53.108;18.326;2023-04-26T18:51:14;7.60;87.70
21267;DHT22;10791;53.108;18.326;2023-04-26T18:56:21;7.40;88.80
21267;DHT22;10791;53.108;18.326;2023-04-26T19:01:28;7.30;89.60
21267;DHT22;10791;53.108;18.326;2023-04-26T19:06:34;7.10;90.80
21267;DHT22;10791;53.108;18.326;2023-04-26T19:11:38;6.90;91.50
21267;DHT22;10791;53.108;18.326;2023-04-26T19:16:43;6.70;92.00
21267;DHT22;10791;53.108;18.326;2023-04-26T19:21:47;6.60;92.50
21267;DHT22;10791;53.108;18.326;2023-04-26T19:26:52;6.30;92.90
21267;DHT22;10791;53.108;18.326;2023-04-26T19:32:00;6.20;93.40
21267;DHT22;10791;53.108;18.326;2023-04-26T19:37:09;6.00;93.90
21267;DHT22;10791;53.108;18.326;2023-04-26T19:42:18;5.90;94.40
21267;DHT22;10791;53.108;18.326;2023-04-26T19:47:22;5.80;95.40
21267;DHT22;10791;53.108;18.326;2023-04-26T19:52:29;5.70;96.10
21267;DHT22;10791;53.108;18.326;2023-04-26T19:57:38;5.50;96.70
21267;DHT22;10791;53.108;18.326;2023-04-26T20:02:43;5.40;97.30
21267;DHT22;10791;53.108;18.326;2023-04-26T20:07:48;5.30;97.80
21267;DHT22;10791;53.108;18.326;2023-04-26T20:12:54;5.20;97.80
21267;DHT22;10791;53.108;18.326;2023-04-26T20:17:59;5.10;98.40
21267;DHT22;10791;53.108;18.326;2023-04-26T20:23:06;5.00;99.10
21267;DHT22;10791;53.108;18.326;2023-04-26T20:28:11;4.80;99.90
21267;DHT22;10791;53.108;18.326;2023-04-26T20:33:15;4.60;99.90
21267;DHT22;10791;53.108;18.326;2023-04-26T20:38:23;4.50;99.90
21267;DHT22;10791;53.108;18.326;2023-04-26T20:43:27;4.40;99.90
21267;DHT22;10791;53.108;18.326;2023-04-26T20:48:31;4.30;99.90
21267;DHT22;10791;53.108;18.326;2023-04-26T20:53:36;4.10;99.90
21267;DHT22;10791;53.108;18.326;2023-04-26T20:58:40;4.00;99.90
21267;DHT22;10791;53.108;18.326;2023-04-26T21:03:43;3.90;99.90
21267;DHT22;10791;53.108;18.326;2023-04-26T21:08:47;3.90;99.90
21267;DHT22;10791;53.108;18.326;2023-04-26T21:13:51;3.70;99.90
21267;DHT22;10791;53.108;18.326;2023-04-26T21:18:56;3.60;99.90
21267;DHT22;10791;53.108;18.326;2023-04-26T21:24:00;3.50;99.90
21267;DHT22;10791;53.108;18.326;2023-04-26T21:29:05;3.40;99.90
21267;DHT22;10791;53.108;18.326;2023-04-26T21:34:10;3.30;99.90
21267;DHT22;10791;53.108;18.326;2023-04-26T21:39:14;3.20;99.90
21267;DHT22;10791;53.108;18.326;2023-04-26T21:44:17;3.20;99.90
21267;DHT22;10791;53.108;18.326;2023-04-26T21:49:20;3.10;99.90
21267;DHT22;10791;53.108;18.326;2023-04-26T21:54:23;3.00;99.90
21267;DHT22;10791;53.108;18.326;2023-04-26T21:59:27;2.90;99.90
21267;DHT22;10791;53.108;18.326;2023-04-26T22:04:31;2.80;99.90
21267;DHT22;10791;53.108;18.326;2023-04-26T22:09:35;2.70;99.90
21267;DHT22;10791;53.108;18.326;2023-04-26T22:14:38;2.60;99.90
21267;DHT22;10791;53.108;18.326;2023-04-26T22:19:41;2.60;99.90
21267;DHT22;10791;53.108;18.326;2023-04-26T22:24:44;2.60;99.90
21267;DHT22;10791;53.108;18.326;2023-04-26T22:29:48;2.60;99.90
21267;DHT22;10791;53.108;18.326;2023-04-26T22:34:51;2.50;99.90
21267;DHT22;10791;53.108;18.326;2023-04-26T22:39:54;2.50;99.90
21267;DHT22;10791;53.108;18.326;2023-04-26T22:44:58;2.50;99.90
21267;DHT22;10791;53.108;18.326;2023-04-26T22:50:02;2.50;99.90
21267;DHT22;10791;53.108;18.326;2023-04-26T22:55:06;2.50;99.90
21267;DHT22;10791;53.108;18.326;2023-04-26T23:00:10;2.60;99.90
21267;DHT22;10791;53.108;18.326;2023-04-26T23:05:14;2.60;99.90
21267;DHT22;10791;53.108;18.326;2023-04-26T23:10:18;2.60;99.90
21267;DHT22;10791;53.108;18.326;2023-04-26T23:15:21;2.60;99.90
21267;DHT22;10791;53.108;18.326;2023-04-26T23:20:25;2.70;99.90
21267;DHT22;10791;53.108;18.326;2023-04-26T23:25:28;2.60;99.90
21267;DHT22;10791;53.108;18.326;2023-04-26T23:30:31;2.60;99.90
21267;DHT22;10791;53.108;18.326;2023-04-26T23:35:39;2.70;99.90
21267;DHT22;10791;53.108;18.326;2023-04-26T23:40:43;2.70;99.90
21267;DHT22;10791;53.108;18.326;2023-04-26T23:45:46;2.70;99.90
21267;DHT22;10791;53.108;18.326;2023-04-26T23:50:49;2.70;99.90
21267;DHT22;10791;53.108;18.326;2023-04-26T23:55:53;2.70;99.90
